Pagrindinis puslapis
METAR-TAF:

METAR-TAF

Oro uostai :

Roatanas, Hondūras

platuma: 16-19N, ilguma: 086-31W, Aukštis: 5 m

Dabartinis oras

Ataskaita buvo paskelbta 1 valandą ir 8 minutes, ne 01:00 UTC
Vėjas 14 kt iš Rytų
Temperatūra 29°C
Drėgmė 79%
Slėgis 1009 hPa
Matomumas: 8000 m
Mažai debesys ne aukštis 2400 ft

METAR: MHRO 200100Z 10014KT 8000 FEW024 29/25 Q1009 A2980 NOSIG

Laikas: 20:08 (02:08 UTC)

Prognozė

Ataskaita buvo paskelbta 3 valandos ir 8 minutes, ne 23:00 UTC
Prognozė galioja nuo 20 metu 00 UTC su 20 metu 24 UTC
Vėjas 18 kt iš Rytų
Matomumas: 8000 m
Mažai debesys ne aukštis 2400 ft
Tapsmas
nuo 20 metu 10 UTC su 20 metu 12 UTC
Matomumas: 1000 m
dūmai
Tapsmas
nuo 20 metu 18 UTC su 20 metu 20 UTC
Matomumas: 6000 m
Mažai debesys ne aukštis 2500 ft

TAF: MHRO 192300Z 2000/2024 09018KT 8000 FEW024 TX32/2019Z TN28/2012Z BECMG 2010/2012 1000 FU NSC BECMG 2018/2020 6000 FEW025

Orai ataskaitas ir orų prognozės (METAR, TAF).

turimą stotys yra geltonos ir raudonos taškus žemėlapyje.

Perkelti pele per norėdami pamatyti stoties vardą.

Tada spustelėkite, norėdami matyti oro stebėjimo ir prognozės.

Norėdami pakeisti žemėlapį: spustelėkite ant žalios mygtukų su juodo kryžiaus žemyn,; žalią mygtuką su brūkšneliu, jei norite nutolinti; arba žalių rodyklių gretimoms žemėlapius.


METAR-TAF: